Menu Close Menu
Station Historical Data
Daily Summary for October 19, 2017 Units:  English    Metric   Both
« Previous Day
Next Day »
Daily Weekly Monthly Yearly Custom
  High: Low: Average:
Temperature: 73.6 °F 45.1 °F 56.9 °F
Dew Point: 51.5 °F 40.4 °F 46.2 °F
Humidity: 93% 33% 71%
Wind Speed: 6.0mph 1.0mph 3.5mph
Wind Gust: 6.0mph - -
Wind- - South
Pressure: 30.37 in 30.25 in -
Precipitation: 0.00 in    
Historical Graphs
 
 
Tabular Data for October 19, 2017
Time Temperature Dew Point Pressure Wind Wind Speed Wind Gust Humidity Rainfall Rate (Hourly) solar Conditions
00:01 50.8 °F 46.1 °F 30.33 in East 2.3 mph 2.3 mph 84% 0.00 in WeatherDisplay:10.37 W/m2 CLR
00:06 50.6 °F 46.3 °F 30.33 in East 2.3 mph 2.3 mph 85% 0.00 in WeatherDisplay:10.37 W/m2 CLR
00:11 50.4 °F 46.1 °F 30.33 in East 2.3 mph 2.3 mph 85% 0.00 in WeatherDisplay:10.37 W/m2 CLR
00:16 50.2 °F 45.9 °F 30.33 in East 2.3 mph 2.3 mph 85% 0.00 in WeatherDisplay:10.37 W/m2 CLR
00:21 50.2 °F 45.9 °F 30.33 in East 2.3 mph 2.3 mph 85% 0.00 in WeatherDisplay:10.37 W/m2 CLR
00:25 50.2 °F 45.9 °F 30.33 in East 2.3 mph 2.3 mph 85% 0.00 in WeatherDisplay:10.37 W/m2 CLR
00:30 50.1 °F 45.8 °F 30.33 in East 2.3 mph 2.3 mph 85% 0.00 in WeatherDisplay:10.37 W/m2 CLR
00:35 49.9 °F 45.9 °F 30.33 in East 2.3 mph 2.3 mph 86% 0.00 in WeatherDisplay:10.37 W/m2 CLR
00:40 49.6 °F 45.6 °F 30.33 in East 2.3 mph 2.3 mph 86% 0.00 in WeatherDisplay:10.37 W/m2 CLR
00:45 49.4 °F 45.4 °F 30.33 in East 2.3 mph 2.3 mph 86% 0.00 in WeatherDisplay:10.37 W/m2 CLR
00:50 49.3 °F 45.6 °F 30.32 in East 2.3 mph 2.3 mph 87% 0.00 in WeatherDisplay:10.37 W/m2 CLR
00:55 49.1 °F 45.4 °F 30.32 in East 2.3 mph 2.3 mph 87% 0.00 in WeatherDisplay:10.37 W/m2 CLR
01:00 49.2 °F 45.5 °F 30.32 in East 2.3 mph 2.3 mph 87% 0.00 in WeatherDisplay:10.37 W/m2 CLR
01:05 49.4 °F 45.4 °F 30.33 in East 2.3 mph 2.3 mph 86% 0.00 in WeatherDisplay:10.37 W/m2 CLR
01:10 49.4 °F 45.4 °F 30.32 in East 2.3 mph 2.3 mph 86% 0.00 in WeatherDisplay:10.37 W/m2 CLR
01:15 49.1 °F 45.1 °F 30.32 in East 2.3 mph 2.3 mph 86% 0.00 in WeatherDisplay:10.37 W/m2 CLR
01:20 48.9 °F 45.2 °F 30.32 in East 2.3 mph 2.3 mph 87% 0.00 in WeatherDisplay:10.37 W/m2 CLR
01:25 48.8 °F 44.8 °F 30.32 in East 2.3 mph 2.3 mph 86% 0.00 in WeatherDisplay:10.37 W/m2 CLR
01:30 48.9 °F 44.6 °F 30.32 in East 2.3 mph 2.3 mph 85% 0.00 in WeatherDisplay:10.37 W/m2 CLR
01:35 49.1 °F 44.8 °F 30.32 in East 2.3 mph 2.3 mph 85% 0.00 in WeatherDisplay:10.37 W/m2 CLR
01:40 49.2 °F 44.9 °F 30.32 in East 2.3 mph 2.3 mph 85% 0.00 in WeatherDisplay:10.37 W/m2 CLR
01:46 49.1 °F 44.8 °F 30.32 in East 2.3 mph 2.3 mph 85% 0.00 in WeatherDisplay:10.37 W/m2 CLR
01:51 49.0 °F 44.7 °F 30.32 in East 2.3 mph 2.3 mph 85% 0.00 in WeatherDisplay:10.37 W/m2 CLR
01:56 48.9 °F 44.6 °F 30.32 in East 2.3 mph 2.3 mph 85% 0.00 in WeatherDisplay:10.37 W/m2 CLR
02:01 48.9 °F 44.6 °F 30.32 in East 2.3 mph 2.3 mph 85% 0.00 in WeatherDisplay:10.37 W/m2 CLR
02:06 48.8 °F 44.8 °F 30.32 in East 2.3 mph 2.3 mph 86% 0.00 in WeatherDisplay:10.37 W/m2 CLR
02:11 48.6 °F 44.6 °F 30.32 in East 2.3 mph 2.3 mph 86% 0.00 in WeatherDisplay:10.37 W/m2 CLR
02:16 48.4 °F 44.7 °F 30.32 in East 2.3 mph 2.3 mph 87% 0.00 in WeatherDisplay:10.37 W/m2 CLR
02:21 48.2 °F 44.5 °F 30.32 in East 2.3 mph 2.3 mph 87% 0.00 in WeatherDisplay:10.37 W/m2 CLR
02:26 48.1 °F 44.4 °F 30.32 in East 2.3 mph 2.3 mph 87% 0.00 in WeatherDisplay:10.37 W/m2 CLR
02:31 48.0 °F 44.3 °F 30.32 in East 2.3 mph 2.3 mph 87% 0.00 in WeatherDisplay:10.37 W/m2 CLR
02:36 47.8 °F 44.1 °F 30.32 in East 2.3 mph 2.3 mph 87% 0.00 in WeatherDisplay:10.37 W/m2 CLR
02:41 47.7 °F 44.3 °F 30.32 in East 2.3 mph 2.3 mph 88% 0.00 in WeatherDisplay:10.37 W/m2 CLR
02:46 47.6 °F 44.2 °F 30.31 in East 2.3 mph 2.3 mph 88% 0.00 in WeatherDisplay:10.37 W/m2 CLR
02:51 47.5 °F 44.1 °F 30.31 in East 2.3 mph 2.3 mph 88% 0.00 in WeatherDisplay:10.37 W/m2 CLR
02:56 47.4 °F 44.0 °F 30.31 in East 2.3 mph 2.3 mph 88% 0.00 in WeatherDisplay:10.37 W/m2 CLR
03:01 47.3 °F 44.2 °F 30.31 in East 2.3 mph 2.3 mph 89% 0.00 in WeatherDisplay:10.37 W/m2 CLR
03:06 47.3 °F 44.2 °F 30.31 in East 2.3 mph 2.3 mph 89% 0.00 in WeatherDisplay:10.37 W/m2 CLR
03:11 47.3 °F 43.9 °F 30.32 in East 2.3 mph 2.3 mph 88% 0.00 in WeatherDisplay:10.37 W/m2 CLR
03:17 47.3 °F 44.2 °F 30.32 in East 2.3 mph 2.3 mph 89% 0.00 in WeatherDisplay:10.37 W/m2 CLR
03:22 47.1 °F 43.7 °F 30.31 in East 2.3 mph 2.3 mph 88% 0.00 in WeatherDisplay:10.37 W/m2 CLR
03:27 47.0 °F 43.9 °F 30.31 in East 2.3 mph 2.3 mph 89% 0.00 in WeatherDisplay:10.37 W/m2 CLR
03:32 46.8 °F 43.7 °F 30.31 in East 2.3 mph 2.3 mph 89% 0.00 in WeatherDisplay:10.37 W/m2 CLR
03:37 46.8 °F 43.7 °F 30.31 in East 2.3 mph 2.3 mph 89% 0.00 in WeatherDisplay:10.37 W/m2 CLR
03:42 46.7 °F 43.6 °F 30.31 in East 2.3 mph 2.3 mph 89% 0.00 in WeatherDisplay:10.37 W/m2 CLR
03:47 46.7 °F 43.6 °F 30.31 in East 2.3 mph 2.3 mph 89% 0.00 in WeatherDisplay:10.37 W/m2 CLR
03:52 46.8 °F 43.7 °F 30.31 in East 2.3 mph 2.3 mph 89% 0.00 in WeatherDisplay:10.37 W/m2 CLR
03:57 46.8 °F 43.7 °F 30.31 in East 2.3 mph 2.3 mph 89% 0.00 in WeatherDisplay:10.37 W/m2 CLR
04:02 46.7 °F 43.6 °F 30.31 in East 2.3 mph 2.3 mph 89% 0.00 in WeatherDisplay:10.37 W/m2 CLR
04:07 46.5 °F 43.4 °F 30.31 in East 2.3 mph 2.3 mph 89% 0.00 in WeatherDisplay:10.37 W/m2 CLR
04:12 46.4 °F 43.3 °F 30.31 in East 2.3 mph 2.3 mph 89% 0.00 in WeatherDisplay:10.37 W/m2 CLR
04:17 46.3 °F 43.2 °F 30.31 in East 2.3 mph 2.3 mph 89% 0.00 in WeatherDisplay:10.37 W/m2 CLR
04:22 46.3 °F 43.5 °F 30.31 in East 2.3 mph 2.3 mph 90% 0.00 in WeatherDisplay:10.37 W/m2 CLR
04:27 46.4 °F 43.3 °F 30.31 in East 2.3 mph 2.3 mph 89% 0.00 in WeatherDisplay:10.37 W/m2 CLR
04:33 46.2 °F 43.1 °F 30.31 in East 2.3 mph 2.3 mph 89% 0.00 in WeatherDisplay:10.37 W/m2 CLR
04:38 46.0 °F 42.9 °F 30.31 in East 2.3 mph 2.3 mph 89% 0.00 in WeatherDisplay:10.37 W/m2 CLR
04:43 46.0 °F 43.2 °F 30.31 in East 2.3 mph 2.3 mph 90% 0.00 in WeatherDisplay:10.37 W/m2 CLR
04:48 45.9 °F 43.1 °F 30.31 in East 2.3 mph 2.3 mph 90% 0.00 in WeatherDisplay:10.37 W/m2 CLR
04:53 45.8 °F 43.0 °F 30.31 in East 2.3 mph 2.3 mph 90% 0.00 in WeatherDisplay:10.37 W/m2 CLR
04:58 45.7 °F 42.9 °F 30.31 in East 2.3 mph 2.3 mph 90% 0.00 in WeatherDisplay:10.37 W/m2 CLR
05:03 45.7 °F 42.9 °F 30.31 in East 2.3 mph 2.3 mph 90% 0.00 in WeatherDisplay:10.37 W/m2 CLR
05:08 45.6 °F 42.8 °F 30.31 in East 2.3 mph 2.3 mph 90% 0.00 in WeatherDisplay:10.37 W/m2 CLR
05:13 45.7 °F 43.2 °F 30.31 in East 2.3 mph 2.3 mph 91% 0.00 in WeatherDisplay:10.37 W/m2 CLR
05:18 46.0 °F 43.5 °F 30.31 in East 2.3 mph 2.3 mph 91% 0.00 in WeatherDisplay:10.37 W/m2 CLR
05:23 46.2 °F 43.7 °F 30.31 in East 2.3 mph 2.3 mph 91% 0.00 in WeatherDisplay:10.37 W/m2 CLR
05:28 46.2 °F 43.7 °F 30.31 in East 2.3 mph 2.3 mph 91% 0.00 in WeatherDisplay:10.37 W/m2 CLR
05:33 46.1 °F 43.6 °F 30.31 in East 2.3 mph 2.3 mph 91% 0.00 in WeatherDisplay:10.37 W/m2 CLR
05:38 46.0 °F 43.5 °F 30.31 in East 2.3 mph 2.3 mph 91% 0.00 in WeatherDisplay:10.37 W/m2 CLR
05:43 45.9 °F 43.4 °F 30.31 in East 2.3 mph 2.3 mph 91% 0.00 in WeatherDisplay:10.37 W/m2 CLR
05:48 45.9 °F 43.4 °F 30.32 in East 2.3 mph 2.3 mph 91% 0.00 in WeatherDisplay:10.37 W/m2 CLR
05:53 46.1 °F 43.6 °F 30.32 in East 2.3 mph 2.3 mph 91% 0.00 in WeatherDisplay:10.37 W/m2 CLR
05:58 46.3 °F 43.8 °F 30.32 in East 2.3 mph 2.3 mph 91% 0.00 in WeatherDisplay:10.37 W/m2 CLR
06:03 46.4 °F 44.2 °F 30.32 in East 2.3 mph 2.3 mph 92% 0.00 in WeatherDisplay:10.37 W/m2 CLR
06:09 46.4 °F 43.9 °F 30.32 in East 2.3 mph 2.3 mph 91% 0.00 in WeatherDisplay:10.37 W/m2 CLR
06:14 46.2 °F 43.7 °F 30.32 in East 2.3 mph 2.3 mph 91% 0.00 in WeatherDisplay:10.37 W/m2 CLR
06:19 46.0 °F 43.5 °F 30.32 in East 2.3 mph 2.3 mph 91% 0.00 in WeatherDisplay:10.37 W/m2 CLR
06:24 46.0 °F 43.5 °F 30.32 in East 2.3 mph 2.3 mph 91% 0.00 in WeatherDisplay:10.37 W/m2 CLR
06:29 46.0 °F 43.5 °F 30.31 in East 2.3 mph 2.3 mph 91% 0.00 in WeatherDisplay:10.37 W/m2 CLR
06:34 46.0 °F 43.5 °F 30.32 in East 2.3 mph 2.3 mph 91% 0.00 in WeatherDisplay:10.37 W/m2 CLR
06:39 46.2 °F 44.0 °F 30.32 in East 2.3 mph 2.3 mph 92% 0.00 in WeatherDisplay:10.37 W/m2 CLR
06:44 46.3 °F 43.8 °F 30.32 in East 2.3 mph 2.3 mph 91% 0.00 in WeatherDisplay:10.37 W/m2 CLR
06:49 46.3 °F 43.8 °F 30.32 in East 2.3 mph 2.3 mph 91% 0.00 in WeatherDisplay:10.37 W/m2 CLR
06:54 46.1 °F 43.6 °F 30.32 in East 2.3 mph 2.3 mph 91% 0.00 in WeatherDisplay:10.37 W/m2 CLR
06:59 45.9 °F 43.4 °F 30.32 in East 2.3 mph 2.3 mph 91% 0.00 in WeatherDisplay:10.37 W/m2 CLR
07:04 45.9 °F 43.4 °F 30.32 in ESE 2.3 mph 2.3 mph 91% 0.00 in WeatherDisplay:10.37 W/m2 CLR
07:09 45.9 °F 43.4 °F 30.33 in ESE 2.3 mph 2.3 mph 91% 0.00 in WeatherDisplay:10.37 W/m2 CLR
07:14 45.9 °F 43.4 °F 30.33 in ESE 2.3 mph 2.3 mph 91% 0.00 in WeatherDisplay:10.37 W/m2 CLR
07:19 45.6 °F 43.1 °F 30.33 in ESE 2.3 mph 2.3 mph 91% 0.00 in WeatherDisplay:10.37 W/m2 CLR
07:24 45.6 °F 43.1 °F 30.33 in ESE 2.3 mph 2.3 mph 91% 0.00 in WeatherDisplay:10.37 W/m2 CLR
07:29 45.6 °F 43.1 °F 30.33 in ESE 2.3 mph 2.3 mph 91% 0.00 in WeatherDisplay:10.37 W/m2 CLR
07:34 45.4 °F 42.9 °F 30.33 in ESE 2.3 mph 2.3 mph 91% 0.00 in WeatherDisplay:10.37 W/m2 CLR
07:39 45.3 °F 42.8 °F 30.33 in ESE 2.3 mph 2.3 mph 91% 0.00 in WeatherDisplay:10.37 W/m2 CLR
07:45 45.3 °F 42.8 °F 30.33 in ESE 2.3 mph 2.3 mph 91% 0.00 in WeatherDisplay:10.37 W/m2 CLR
07:50 45.2 °F 42.7 °F 30.33 in ESE 2.3 mph 2.3 mph 91% 0.00 in WeatherDisplay:10.37 W/m2 CLR
07:55 45.1 °F 42.6 °F 30.33 in ESE 2.3 mph 2.3 mph 91% 0.00 in WeatherDisplay:10.37 W/m2 CLR
08:00 45.1 °F 42.6 °F 30.33 in ESE 2.3 mph 2.3 mph 91% 0.00 in WeatherDisplay:10.37 W/m2 CLR
08:05 45.2 °F 42.7 °F 30.33 in ESE 1.2 mph 1.2 mph 91% 0.00 in WeatherDisplay:10.37 W/m2 FEW
08:10 45.2 °F 42.7 °F 30.33 in ESE 1.2 mph 1.2 mph 91% 0.00 in WeatherDisplay:10.37 W/m2 FEW
08:15 45.2 °F 43.0 °F 30.33 in ESE 1.2 mph 1.2 mph 92% 0.00 in WeatherDisplay:10.37 W/m2 FEW
08:20 45.5 °F 43.3 °F 30.33 in ESE 1.0 mph 1.0 mph 92% 0.00 in WeatherDisplay:10.37 W/m2 FEW
08:25 45.8 °F 43.6 °F 30.33 in ESE 1.0 mph 1.0 mph 92% 0.00 in WeatherDisplay:10.37 W/m2 FEW
08:30 46.1 °F 43.9 °F 30.33 in ESE 1.2 mph 1.2 mph 92% 0.00 in WeatherDisplay:10.37 W/m2 FEW
08:35 46.6 °F 44.7 °F 30.33 in ESE 1.2 mph 1.2 mph 93% 0.00 in WeatherDisplay:10.37 W/m2 FEW
08:40 46.9 °F 45.0 °F 30.34 in ESE 1.2 mph 1.2 mph 93% 0.00 in WeatherDisplay:10.37 W/m2 FEW
08:45 47.1 °F 45.2 °F 30.34 in ESE 1.2 mph 1.2 mph 93% 0.00 in WeatherDisplay:10.37 W/m2 FEW
08:50 47.8 °F 45.9 °F 30.35 in ESE 1.2 mph 1.2 mph 93% 0.00 in WeatherDisplay:10.37 W/m2 FEW
08:55 48.6 °F 46.4 °F 30.35 in ESE 1.2 mph 1.2 mph 92% 0.00 in WeatherDisplay:10.37 W/m2 FEW
09:00 49.1 °F 46.6 °F 30.35 in ESE 1.2 mph 1.2 mph 91% 0.00 in WeatherDisplay:10.37 W/m2 FEW
09:05 49.5 °F 46.7 °F 30.35 in ESE 1.2 mph   90% 0.00 in WeatherDisplay:10.37 W/m2 FEW
09:10 50.0 °F 46.9 °F 30.35 in ESE 1.2 mph 1.2 mph 89% 0.00 in WeatherDisplay:10.37 W/m2 FEW
09:15 50.5 °F 47.1 °F 30.36 in ESE 1.2 mph 1.2 mph 88% 0.00 in WeatherDisplay:10.37 W/m2 FEW
09:20 51.2 °F 46.5 °F 30.36 in ESE 1.2 mph 1.2 mph 84% 0.00 in WeatherDisplay:10.37 W/m2 FEW
09:25 52.1 °F 47.1 °F 30.36 in ESE 1.2 mph 1.2 mph 83% 0.00 in WeatherDisplay:10.37 W/m2 FEW
09:30 52.6 °F 46.3 °F 30.36 in ESE 1.2 mph 1.2 mph 79% 0.00 in WeatherDisplay:10.37 W/m2 FEW
09:35 53.4 °F 46.7 °F 30.36 in ESE 1.2 mph 1.2 mph 78% 0.00 in WeatherDisplay:10.37 W/m2 FEW
09:40 54.2 °F 47.1 °F 30.37 in ESE 1.2 mph 1.2 mph 77% 0.00 in WeatherDisplay:10.37 W/m2 FEW
09:45 54.6 °F 47.9 °F 30.37 in ESE 1.2 mph 1.2 mph 78% 0.00 in WeatherDisplay:10.37 W/m2 FEW
09:50 55.0 °F 47.6 °F 30.37 in ESE 1.2 mph 1.2 mph 76% 0.00 in WeatherDisplay:10.37 W/m2 FEW
09:55 55.2 °F 47.1 °F 30.37 in ESE 1.2 mph 1.2 mph 74% 0.00 in WeatherDisplay:10.37 W/m2 FEW
10:00 55.6 °F 47.8 °F 30.36 in ESE 1.2 mph 1.2 mph 75% 0.00 in WeatherDisplay:10.37 W/m2 FEW
10:06 55.8 °F 48.0 °F 30.37 in East 3.5 mph 3.5 mph 75% 0.00 in WeatherDisplay:10.37 W/m2 SCT
10:11 56.1 °F 48.3 °F 30.37 in East 3.5 mph 3.5 mph 75% 0.00 in WeatherDisplay:10.37 W/m2 SCT
10:16 56.6 °F 47.7 °F 30.37 in East 3.5 mph 3.5 mph 72% 0.00 in WeatherDisplay:10.37 W/m2 SCT
10:21 57.0 °F 47.3 °F 30.37 in East 3.5 mph 3.5 mph 70% 0.00 in WeatherDisplay:10.37 W/m2 SCT
10:26 57.6 °F 47.5 °F 30.37 in East 3.5 mph 3.5 mph 69% 0.00 in WeatherDisplay:10.37 W/m2 SCT
10:31 58.1 °F 46.8 °F 30.37 in East 3.5 mph 3.5 mph 66% 0.00 in WeatherDisplay:10.37 W/m2 SCT
10:36 59.1 °F 47.7 °F 30.37 in East 3.5 mph 3.5 mph 66% 0.00 in WeatherDisplay:10.37 W/m2 SCT
10:41 60.0 °F 47.8 °F 30.37 in East 3.5 mph 3.5 mph 64% 0.00 in WeatherDisplay:10.37 W/m2 SCT
10:46 60.7 °F 47.6 °F 30.37 in East 3.5 mph 3.5 mph 62% 0.00 in WeatherDisplay:10.37 W/m2 SCT
10:51 61.4 °F 47.8 °F 30.37 in East 3.5 mph 3.5 mph 61% 0.00 in WeatherDisplay:10.37 W/m2 SCT
10:56 62.4 °F 47.9 °F 30.37 in East 3.5 mph 3.5 mph 59% 0.00 in WeatherDisplay:10.37 W/m2 SCT
11:01 63.2 °F 49.5 °F 30.37 in East 5.8 mph 5.8 mph 61% 0.00 in WeatherDisplay:10.37 W/m2 FEW
11:06 63.8 °F 47.8 °F 30.37 in East 5.8 mph 5.8 mph 56% 0.00 in WeatherDisplay:10.37 W/m2 FEW
11:11 64.3 °F 47.3 °F 30.37 in East 5.8 mph 5.8 mph 54% 0.00 in WeatherDisplay:10.37 W/m2 FEW
11:16 64.6 °F 47.1 °F 30.37 in East 5.8 mph 5.8 mph 53% 0.00 in WeatherDisplay:10.37 W/m2 FEW
11:21 65.0 °F 46.4 °F 30.37 in East 5.8 mph 5.8 mph 51% 0.00 in WeatherDisplay:10.37 W/m2 FEW
11:26 65.7 °F 48.6 °F 30.37 in East 5.8 mph 5.8 mph 54% 0.00 in WeatherDisplay:10.37 W/m2 FEW
11:31 66.5 °F 46.7 °F 30.37 in East 5.8 mph 5.8 mph 49% 0.00 in WeatherDisplay:10.37 W/m2 FEW
11:36 66.5 °F 47.3 °F 30.37 in East 5.8 mph 5.8 mph 50% 0.00 in WeatherDisplay:10.37 W/m2 FEW
11:41 67.1 °F 46.7 °F 30.36 in East 5.8 mph 5.8 mph 48% 0.00 in WeatherDisplay:10.37 W/m2 FEW
11:46 67.4 °F 44.7 °F 30.36 in East 5.8 mph 5.8 mph 44% 0.00 in WeatherDisplay:10.37 W/m2 FEW
11:51 67.6 °F 47.8 °F 30.36 in East 5.8 mph 5.8 mph 49% 0.00 in WeatherDisplay:10.37 W/m2 FEW
11:56 67.8 °F 47.4 °F 30.36 in East 5.8 mph 5.8 mph 48% 0.00 in WeatherDisplay:10.37 W/m2 FEW
12:01 67.6 °F 46.6 °F 30.35 in East 5.8 mph 5.8 mph 47% 0.00 in WeatherDisplay:10.37 W/m2 FEW
12:07 67.4 °F 45.9 °F 30.35 in East 4.6 mph 4.6 mph 46% 0.00 in WeatherDisplay:10.37 W/m2 FEW
12:12 67.3 °F 45.8 °F 30.36 in East 4.6 mph 4.6 mph 46% 0.00 in WeatherDisplay:10.37 W/m2 FEW
12:17 67.0 °F 46.1 °F 30.35 in East 4.6 mph 4.6 mph 47% 0.00 in WeatherDisplay:10.37 W/m2 FEW
12:22 66.6 °F 45.2 °F 30.35 in East 4.6 mph 4.6 mph 46% 0.00 in WeatherDisplay:10.37 W/m2 FEW
12:27 66.7 °F 46.4 °F 30.35 in East 4.6 mph 4.6 mph 48% 0.00 in WeatherDisplay:10.37 W/m2 FEW
12:32 66.7 °F 45.8 °F 30.35 in East 4.6 mph 4.6 mph 47% 0.00 in WeatherDisplay:10.37 W/m2 FEW
12:37 66.7 °F 45.8 °F 30.35 in East 4.6 mph 4.6 mph 47% 0.00 in WeatherDisplay:10.37 W/m2 FEW
12:42 66.9 °F 45.4 °F 30.35 in East 4.6 mph 4.6 mph 46% 0.00 in WeatherDisplay:10.37 W/m2 FEW
12:47 66.9 °F 46.0 °F 30.35 in East 4.6 mph 4.6 mph 47% 0.00 in WeatherDisplay:10.37 W/m2 FEW
12:52 67.0 °F 46.1 °F 30.34 in East 4.6 mph 4.6 mph 47% 0.00 in WeatherDisplay:10.37 W/m2 FEW
12:57 67.3 °F 45.8 °F 30.34 in East 4.6 mph 4.6 mph 46% 0.00 in WeatherDisplay:10.37 W/m2 FEW
13:02 67.5 °F 46.6 °F 30.34 in North 5.8 mph 5.8 mph 47% 0.00 in WeatherDisplay:10.37 W/m2 FEW
13:07 67.5 °F 45.4 °F 30.34 in North 5.8 mph 5.8 mph 45% 0.00 in WeatherDisplay:10.37 W/m2 FEW
13:12 67.5 °F 45.4 °F 30.33 in North 5.8 mph 5.8 mph 45% 0.00 in WeatherDisplay:10.37 W/m2 FEW
13:17 67.9 °F 45.2 °F 30.33 in North 5.8 mph 5.8 mph 44% 0.00 in WeatherDisplay:10.37 W/m2 FEW
13:20 67.9 °F 44.6 °F 30.33 in North 5.8 mph 5.8 mph 43% 0.00 in WeatherDisplay:10.37 W/m2 FEW
13:25 67.8 °F 45.7 °F 30.33 in North 5.8 mph 5.8 mph 45% 0.00 in WeatherDisplay:10.37 W/m2 FEW
13:30 68.3 °F 45.5 °F 30.33 in North 5.8 mph 5.8 mph 44% 0.00 in WeatherDisplay:10.37 W/m2 FEW
13:35 68.8 °F 45.4 °F 30.32 in North 5.8 mph 5.8 mph 43% 0.00 in WeatherDisplay:10.37 W/m2 FEW
13:38 69.0 °F 44.9 °F 30.32 in North 5.8 mph 5.8 mph 42% 0.00 in WeatherDisplay:10.37 W/m2 FEW
13:43 69.0 °F 44.9 °F 30.32 in North 5.8 mph 5.8 mph 42% 0.00 in WeatherDisplay:10.37 W/m2 FEW
13:49 69.5 °F 44.8 °F 30.32 in North 5.8 mph 5.8 mph 41% 0.00 in WeatherDisplay:10.37 W/m2 FEW
13:54 70.3 °F 45.5 °F 30.31 in North 5.8 mph 5.8 mph 41% 0.00 in WeatherDisplay:10.37 W/m2 FEW
13:59 71.3 °F 47.0 °F 30.31 in North 5.8 mph 5.8 mph 42% 0.00 in WeatherDisplay:10.37 W/m2 FEW
14:04 71.9 °F 46.3 °F 30.31 in North 5.8 mph 5.8 mph 40% 0.00 in WeatherDisplay:10.37 W/m2 FEW
14:09 72.9 °F 45.8 °F 30.30 in North 5.8 mph 5.8 mph 38% 0.00 in WeatherDisplay:10.37 W/m2 FEW
14:14 73.3 °F 44.7 °F 30.30 in North 5.8 mph 5.8 mph 36% 0.00 in WeatherDisplay:10.37 W/m2 FEW
14:19 73.1 °F 46.0 °F 30.30 in North 5.8 mph 5.8 mph 38% 0.00 in WeatherDisplay:10.37 W/m2 FEW
14:24 73.2 °F 45.4 °F 30.30 in North 5.8 mph 5.8 mph 37% 0.00 in WeatherDisplay:10.37 W/m2 FEW
14:29 73.6 °F 47.1 °F 30.29 in North 5.8 mph 5.8 mph 39% 0.00 in WeatherDisplay:10.37 W/m2 FEW
14:34 73.4 °F 46.2 °F 30.29 in North 5.8 mph 5.8 mph 38% 0.00 in WeatherDisplay:10.37 W/m2 FEW
14:39 72.7 °F 44.9 °F 30.29 in North 5.8 mph 5.8 mph 37% 0.00 in WeatherDisplay:10.37 W/m2 FEW
14:44 72.5 °F 45.4 °F 30.28 in North 5.8 mph 5.8 mph 38% 0.00 in WeatherDisplay:10.37 W/m2 FEW
14:49 72.8 °F 46.4 °F 30.28 in North 5.8 mph 5.8 mph 39% 0.00 in WeatherDisplay:10.37 W/m2 FEW
14:54 72.5 °F 46.1 °F 30.28 in North 5.8 mph 5.8 mph 39% 0.00 in WeatherDisplay:10.37 W/m2 FEW
14:59 73.0 °F 46.6 °F 30.28 in North 5.8 mph 5.8 mph 39% 0.00 in WeatherDisplay:10.37 W/m2 FEW
15:04 73.0 °F 47.2 °F 30.28 in North 5.8 mph 5.8 mph 40% 0.00 in WeatherDisplay:10.37 W/m2 FEW
15:09 72.3 °F 46.6 °F 30.28 in North 5.8 mph 5.8 mph 40% 0.00 in WeatherDisplay:10.37 W/m2 FEW
15:14 72.0 °F 45.7 °F 30.28 in North 5.8 mph 5.8 mph 39% 0.00 in WeatherDisplay:10.37 W/m2 FEW
15:19 71.7 °F 44.0 °F 30.28 in North 5.8 mph 5.8 mph 37% 0.00 in WeatherDisplay:10.37 W/m2 FEW
15:25 71.4 °F 43.0 °F 30.27 in North 5.8 mph 5.8 mph 36% 0.00 in WeatherDisplay:10.37 W/m2 FEW
15:30 71.3 °F 43.7 °F 30.27 in North 5.8 mph 5.8 mph 37% 0.00 in WeatherDisplay:10.37 W/m2 FEW
15:35 71.2 °F 42.9 °F 30.27 in North 5.8 mph 5.8 mph 36% 0.00 in WeatherDisplay:10.37 W/m2 FEW
15:40 71.1 °F 43.5 °F 30.27 in North 5.8 mph 5.8 mph 37% 0.00 in WeatherDisplay:10.37 W/m2 FEW
15:45 71.2 °F 44.2 °F 30.27 in North 6.0 mph 6.0 mph 38% 0.00 in WeatherDisplay:10.37 W/m2 FEW
15:50 71.1 °F 44.9 °F 30.27 in North 6.0 mph 6.0 mph 39% 0.00 in WeatherDisplay:10.37 W/m2 FEW
15:55 71.3 °F 45.1 °F 30.27 in North 6.0 mph 6.0 mph 39% 0.00 in WeatherDisplay:10.37 W/m2 FEW
16:00 71.1 °F 41.3 °F 30.27 in North 6.0 mph 6.0 mph 34% 0.00 in WeatherDisplay:10.37 W/m2 FEW
16:05 71.0 °F 41.2 °F 30.27 in North 6.0 mph 6.0 mph 34% 0.00 in WeatherDisplay:10.37 W/m2 FEW
16:10 71.0 °F 40.4 °F 30.27 in North 6.0 mph 6.0 mph 33% 0.00 in WeatherDisplay:10.37 W/m2 FEW
16:15 71.0 °F 42.0 °F 30.27 in North 6.0 mph 6.0 mph 35% 0.00 in WeatherDisplay:10.37 W/m2 FEW
16:20 71.0 °F 42.0 °F 30.27 in North 5.8 mph 5.8 mph 35% 0.00 in WeatherDisplay:10.37 W/m2 FEW
16:25 71.0 °F 43.4 °F 30.27 in North 6.0 mph 6.0 mph 37% 0.00 in WeatherDisplay:10.37 W/m2 FEW
16:30 70.8 °F 41.8 °F 30.27 in North 6.0 mph 6.0 mph 35% 0.00 in WeatherDisplay:10.37 W/m2 FEW
16:35 70.7 °F 45.2 °F 30.27 in North 5.8 mph 5.8 mph 40% 0.00 in WeatherDisplay:10.37 W/m2 FEW
16:40 70.2 °F 46.0 °F 30.27 in North 5.8 mph 5.8 mph 42% 0.00 in WeatherDisplay:10.37 W/m2 FEW
16:45 70.0 °F 43.9 °F 30.27 in North 5.8 mph 5.8 mph 39% 0.00 in WeatherDisplay:10.37 W/m2 FEW
16:50 69.8 °F 45.7 °F 30.26 in North 5.8 mph 5.8 mph 42% 0.00 in WeatherDisplay:10.37 W/m2 FEW
16:55 69.7 °F 43.6 °F 30.27 in North 5.8 mph 5.8 mph 39% 0.00 in WeatherDisplay:10.37 W/m2 FEW
17:00 69.8 °F 46.3 °F 30.26 in North 5.8 mph 5.8 mph 43% 0.00 in WeatherDisplay:10.37 W/m2 FEW
17:05 69.6 °F 44.8 °F 30.26 in NNE 3.5 mph 3.5 mph 41% 0.00 in WeatherDisplay:10.37 W/m2 FEW
17:10 69.2 °F 46.9 °F 30.26 in NNE 3.5 mph 3.5 mph 45% 0.00 in WeatherDisplay:10.37 W/m2 FEW
17:15 68.6 °F 47.6 °F 30.26 in NNE 3.5 mph 3.5 mph 47% 0.00 in WeatherDisplay:10.37 W/m2 FEW
17:20 68.4 °F 48.5 °F 30.26 in NNE 3.5 mph 3.5 mph 49% 0.00 in WeatherDisplay:10.37 W/m2 FEW
17:25 68.1 °F 48.8 °F 30.26 in NNE 3.5 mph 3.5 mph 50% 0.00 in WeatherDisplay:10.37 W/m2 FEW
17:30 67.9 °F 48.0 °F 30.26 in NNE 3.5 mph 3.5 mph 49% 0.00 in WeatherDisplay:10.37 W/m2 FEW
17:36 67.8 °F 48.5 °F 30.26 in NNE 3.5 mph 3.5 mph 50% 0.00 in WeatherDisplay:10.37 W/m2 FEW
17:41 67.6 °F 49.3 °F 30.26 in NNE 3.5 mph 3.5 mph 52% 0.00 in WeatherDisplay:10.37 W/m2 FEW
17:46 67.3 °F 49.1 °F 30.26 in NNE 3.5 mph 3.5 mph 52% 0.00 in WeatherDisplay:10.37 W/m2 FEW
17:51 67.0 °F 49.3 °F 30.26 in NNE 3.5 mph 3.5 mph 53% 0.00 in WeatherDisplay:10.37 W/m2 FEW
17:56 66.9 °F 49.2 °F 30.26 in NNE 3.5 mph 3.5 mph 53% 0.00 in WeatherDisplay:10.37 W/m2 FEW
18:01 66.8 °F 47.6 °F 30.25 in NNE 3.5 mph 3.5 mph 50% 0.00 in WeatherDisplay:10.37 W/m2 FEW
18:06 66.7 °F 48.0 °F 30.26 in NNE 3.5 mph 3.5 mph 51% 0.00 in WeatherDisplay:10.37 W/m2 FEW
18:11 66.3 °F 49.2 °F 30.26 in NNE 3.5 mph 3.5 mph 54% 0.00 in WeatherDisplay:10.37 W/m2 FEW
18:16 65.9 °F 48.8 °F 30.25 in NNE 3.5 mph 3.5 mph 54% 0.00 in WeatherDisplay:10.37 W/m2 FEW
18:21 65.7 °F 48.6 °F 30.25 in NNE 3.5 mph 3.5 mph 54% 0.00 in WeatherDisplay:10.37 W/m2 FEW
18:26 65.4 °F 48.8 °F 30.26 in NNE 3.5 mph 3.5 mph 55% 0.00 in WeatherDisplay:10.37 W/m2 FEW
18:31 65.1 °F 49.0 °F 30.26 in NNE 3.5 mph 3.5 mph 56% 0.00 in WeatherDisplay:10.37 W/m2 FEW
18:36 64.9 °F 48.8 °F 30.26 in NNE 3.5 mph 3.5 mph 56% 0.00 in WeatherDisplay:10.37 W/m2 FEW
18:41 64.6 °F 49.5 °F 30.26 in NNE 3.5 mph 3.5 mph 58% 0.00 in WeatherDisplay:10.37 W/m2 FEW
18:46 64.3 °F 49.2 °F 30.25 in NNE 3.5 mph 3.5 mph 58% 0.00 in WeatherDisplay:10.37 W/m2 FEW
18:51 64.0 °F 48.9 °F 30.25 in NNE 3.5 mph 3.5 mph 58% 0.00 in WeatherDisplay:10.37 W/m2 FEW
18:56 63.7 °F 49.1 °F 30.26 in NNE 3.5 mph 3.5 mph 59% 0.00 in WeatherDisplay:10.37 W/m2 FEW
19:01 63.5 °F 49.4 °F 30.26 in North 3.5 mph 3.5 mph 60% 0.00 in WeatherDisplay:10.37 W/m2 FEW
19:06 63.2 °F 49.5 °F 30.26 in North 3.5 mph 3.5 mph 61% 0.00 in WeatherDisplay:10.37 W/m2 FEW
19:12 62.8 °F 49.1 °F 30.26 in North 3.5 mph 3.5 mph 61% 0.00 in WeatherDisplay:10.37 W/m2 FEW
19:17 62.5 °F 49.3 °F 30.26 in North 3.5 mph 3.5 mph 62% 0.00 in WeatherDisplay:10.37 W/m2 FEW
19:22 62.3 °F 49.1 °F 30.26 in North 3.5 mph 3.5 mph 62% 0.00 in WeatherDisplay:10.37 W/m2 FEW
19:27 62.2 °F 49.9 °F 30.26 in North 3.5 mph 3.5 mph 64% 0.00 in WeatherDisplay:10.37 W/m2 FEW
19:32 61.8 °F 50.3 °F 30.27 in North 3.5 mph 3.5 mph 66% 0.00 in WeatherDisplay:10.37 W/m2 FEW
19:37 61.3 °F 50.2 °F 30.27 in North 3.5 mph 3.5 mph 67% 0.00 in WeatherDisplay:10.37 W/m2 FEW
19:42 60.8 °F 50.2 °F 30.27 in North 3.5 mph 3.5 mph 68% 0.00 in WeatherDisplay:10.37 W/m2 FEW
19:47 60.5 °F 50.7 °F 30.27 in North 3.5 mph 3.5 mph 70% 0.00 in WeatherDisplay:10.37 W/m2 FEW
19:52 60.2 °F 50.4 °F 30.27 in North 3.5 mph 3.5 mph 70% 0.00 in WeatherDisplay:10.37 W/m2 FEW
19:57 59.9 °F 51.2 °F 30.27 in North 3.5 mph 3.5 mph 73% 0.00 in WeatherDisplay:10.37 W/m2 FEW
20:02 59.7 °F 51.0 °F 30.27 in North 3.5 mph 3.5 mph 73% 0.00 in WeatherDisplay:10.37 W/m2 FEW
20:07 59.4 °F 51.1 °F 30.27 in North 3.5 mph 3.5 mph 74% 0.00 in WeatherDisplay:10.37 W/m2 FEW
20:12 59.3 °F 50.6 °F 30.27 in West 3.5 mph 3.5 mph 73% 0.00 in WeatherDisplay:10.37 W/m2 FEW
20:17 59.3 °F 51.0 °F 30.27 in West 3.5 mph 3.5 mph 74% 0.00 in WeatherDisplay:10.37 W/m2 FEW
20:22 59.1 °F 51.5 °F 30.27 in West 3.5 mph 3.5 mph 76% 0.00 in WeatherDisplay:10.37 W/m2 FEW
20:27 58.7 °F 51.2 °F 30.27 in West 3.5 mph 3.5 mph 76% 0.00 in WeatherDisplay:10.37 W/m2 FEW
20:32 58.2 °F 51.0 °F 30.27 in West 3.5 mph 3.5 mph 77% 0.00 in WeatherDisplay:10.37 W/m2 FEW
20:37 57.8 °F 51.3 °F 30.27 in West 3.5 mph 3.5 mph 79% 0.00 in WeatherDisplay:10.37 W/m2 FEW
20:42 57.6 °F 51.1 °F 30.28 in West 3.5 mph 3.5 mph 79% 0.00 in WeatherDisplay:10.37 W/m2 FEW
20:47 57.3 °F 51.2 °F 30.27 in West 3.5 mph 3.5 mph 80% 0.00 in WeatherDisplay:10.37 W/m2 FEW
20:52 57.0 °F 50.9 °F 30.27 in West 3.5 mph 3.5 mph 80% 0.00 in WeatherDisplay:10.37 W/m2 FEW
20:57 56.8 °F 51.0 °F 30.28 in West 3.5 mph 3.5 mph 81% 0.00 in WeatherDisplay:10.37 W/m2 FEW
21:02 56.5 °F 50.7 °F 30.27 in North 3.5 mph 3.5 mph 81% 0.00 in WeatherDisplay:10.37 W/m2 FEW
21:07 56.3 °F 50.5 °F 30.27 in North 3.5 mph 3.5 mph 81% 0.00 in WeatherDisplay:10.37 W/m2 FEW
21:12 56.1 °F 50.3 °F 30.28 in North 3.5 mph 3.5 mph 81% 0.00 in WeatherDisplay:10.37 W/m2 FEW
21:17 55.8 °F 50.4 °F 30.28 in North 3.5 mph 3.5 mph 82% 0.00 in WeatherDisplay:10.37 W/m2 FEW
21:22 55.5 °F 50.4 °F 30.28 in North 3.5 mph 3.5 mph 83% 0.00 in WeatherDisplay:10.37 W/m2 FEW
21:28 55.3 °F 50.2 °F 30.28 in North 3.5 mph 3.5 mph 83% 0.00 in WeatherDisplay:10.37 W/m2 FEW
21:33 55.1 °F 50.4 °F 30.28 in North 3.5 mph 3.5 mph 84% 0.00 in WeatherDisplay:10.37 W/m2 FEW
21:38 54.9 °F 50.2 °F 30.28 in North 3.5 mph 3.5 mph 84% 0.00 in WeatherDisplay:10.37 W/m2 FEW
21:43 54.7 °F 50.0 °F 30.28 in North 3.5 mph 3.5 mph 84% 0.00 in WeatherDisplay:10.37 W/m2 FEW
21:48 54.6 °F 50.2 °F 30.28 in North 3.5 mph 3.5 mph 85% 0.00 in WeatherDisplay:10.37 W/m2 FEW
21:53 54.3 °F 49.9 °F 30.28 in North 3.5 mph 3.5 mph 85% 0.00 in WeatherDisplay:10.37 W/m2 FEW
21:58 54.2 °F 49.8 °F 30.28 in North 3.5 mph 3.5 mph 85% 0.00 in WeatherDisplay:10.37 W/m2 FEW
22:00 54.1 °F 49.7 °F 30.28 in North 3.5 mph 3.5 mph 85% 0.00 in WeatherDisplay:10.37 W/m2 FEW
22:05 54.0 °F 49.6 °F 30.28 in North 3.5 mph 3.5 mph 85% 0.00 in WeatherDisplay:10.37 W/m2 FEW
22:10 53.8 °F 49.7 °F 30.28 in North 3.5 mph 3.5 mph 86% 0.00 in WeatherDisplay:10.37 W/m2 FEW
22:15 53.7 °F 49.6 °F 30.28 in North 3.5 mph 3.5 mph 86% 0.00 in WeatherDisplay:10.37 W/m2 FEW
22:20 53.7 °F 49.6 °F 30.28 in North 3.5 mph 3.5 mph 86% 0.00 in WeatherDisplay:10.37 W/m2 FEW
22:25 53.6 °F 49.5 °F 30.28 in North 3.5 mph 3.5 mph 86% 0.00 in WeatherDisplay:10.37 W/m2 FEW
22:30 53.4 °F 49.3 °F 30.28 in North 3.5 mph 3.5 mph 86% 0.00 in WeatherDisplay:10.37 W/m2 FEW
22:35 53.2 °F 49.1 °F 30.28 in North 3.5 mph 3.5 mph 86% 0.00 in WeatherDisplay:10.37 W/m2 FEW
22:40 53.1 °F 49.3 °F 30.29 in North 3.5 mph 3.5 mph 87% 0.00 in WeatherDisplay:10.37 W/m2 FEW
22:46 53.0 °F 49.2 °F 30.29 in North 3.5 mph 3.5 mph 87% 0.00 in WeatherDisplay:10.37 W/m2 FEW
22:51 52.8 °F 49.0 °F 30.29 in North 3.5 mph 3.5 mph 87% 0.00 in WeatherDisplay:10.37 W/m2 FEW
22:56 52.7 °F 48.9 °F 30.29 in North 3.5 mph 3.5 mph 87% 0.00 in WeatherDisplay:10.37 W/m2 FEW
23:01 52.5 °F 48.7 °F 30.29 in North 3.5 mph 3.5 mph 87% 0.00 in WeatherDisplay:10.37 W/m2 FEW
23:06 52.3 °F 48.5 °F 30.29 in North 3.5 mph 3.5 mph 87% 0.00 in WeatherDisplay:10.37 W/m2 CLR
23:11 52.2 °F 48.4 °F 30.29 in North 3.5 mph 3.5 mph 87% 0.00 in WeatherDisplay:10.37 W/m2 CLR
23:16 52.0 °F 48.3 °F 30.29 in North 3.5 mph 3.5 mph 87% 0.00 in WeatherDisplay:10.37 W/m2 CLR
23:21 51.8 °F 48.4 °F 30.29 in North 3.5 mph 3.5 mph 88% 0.00 in WeatherDisplay:10.37 W/m2 CLR
23:24 51.8 °F 48.4 °F 30.29 in North 3.5 mph 3.5 mph 88% 0.00 in WeatherDisplay:10.37 W/m2 CLR
23:25 51.7 °F 48.3 °F 30.29 in North 3.5 mph 3.5 mph 88% 0.00 in WeatherDisplay:10.37 W/m2 CLR
23:31 51.6 °F 48.2 °F 30.29 in North 3.5 mph 3.5 mph 88% 0.00 in WeatherDisplay:10.37 W/m2 CLR
23:36 51.4 °F 48.0 °F 30.29 in North 3.5 mph 3.5 mph 88% 0.00 in WeatherDisplay:10.37 W/m2 CLR
23:41 51.3 °F 47.9 °F 30.29 in North 3.5 mph 3.5 mph 88% 0.00 in WeatherDisplay:10.37 W/m2 CLR
23:46 51.2 °F 48.1 °F 30.28 in North 3.5 mph 3.5 mph 89% 0.00 in WeatherDisplay:10.37 W/m2 CLR
23:51 51.0 °F 47.9 °F 30.28 in North 3.5 mph 3.5 mph 89% 0.00 in WeatherDisplay:10.37 W/m2 CLR
23:56 50.9 °F 47.8 °F 30.28 in North 3.5 mph 3.5 mph 89% 0.00 in WeatherDisplay:10.37 W/m2 CLR
Piedmont Bend
Compliments of Weather Underground - 4 mb